Norwegian Epic — C6XP7 — position and weather

sailwx.info

Track history (hours):
 
Tides and Currents Weather Stations Pressure Air Temp Water Temp Dewpoint Dewpoint Depression Visibility Wind Speed Wind Dir Waves Ship Positions

Norwegian Epic

Last reported at 2014-Aug-01 13:29 UTC. Time now 2014-Aug-01 13:59 UTC.
Position N 43°32' E 007°01'.

Length 329 m; draft 9 m.

Type: Passenger vessel. MMSI: 311018500.

Date/timePositionNaut miles runAvg speedWind from/ knotsBaromVisibWave heightAir tempDewpointWater temp
2014-Aug-01 13:29N 43°32' E 007°01'0 0.1
2014-Aug-01 12:32N 43°32' E 007°01'0 0.0
2014-Aug-01 11:13N 43°32' E 007°01'0 0.0
2014-Aug-01 10:19N 43°32' E 007°01'0 0.0
2014-Aug-01 09:26N 43°32' E 007°01'0 0.0
2014-Aug-01 08:32N 43°32' E 007°01'0 0.0
2014-Aug-01 07:33N 43°32' E 007°01'0 0.0
2014-Aug-01 06:22N 43°32' E 007°01'0 0.0
2014-Aug-01 05:31N 43°32' E 007°01'5 5.1
2014-Aug-01 04:33N 43°28' E 007°05'1111.2
2014-Aug-01 03:33N 43°28' E 007°20'1413.8
2014-Aug-01 02:33N 43°29' E 007°39'1613.9
2014-Aug-01 01:23N 43°30' E 008°01'1113.8
2014-Aug-01 00:34N 43°30' E 008°17'813.4
2014-Aug-01 00:00N 43°24' E 008°24'1023.5 1011.010.8 1.022.0 23.0
2014-Jul-31 23:34N 43°30' E 008°35'1312.5
2014-Jul-31 22:33N 43°31' E 008°53'1212.5
2014-Jul-31 21:33N 43°31' E 009°10'1212.1
2014-Jul-31 20:33N 43°31' E 009°26'1212.3
2014-Jul-31 19:33N 43°32' E 009°43'1212.0
2014-Jul-31 18:34N 43°31' E 009°60'1110.9
2014-Jul-31 17:33N 43°32' E 010°15'3 2.7
2014-Jul-31 16:31N 43°33' E 010°18'0 0.0
2014-Jul-31 15:32N 43°33' E 010°18'0 0.0
2014-Jul-31 14:32N 43°33' E 010°18'0 0.0
2014-Jul-31 13:33N 43°33' E 010°18'0 0.0
2014-Jul-31 12:34N 43°33' E 010°18'0 0.0
2014-Jul-31 11:31N 43°33' E 010°18'0 0.0
2014-Jul-31 10:32N 43°33' E 010°18'0 0.0
2014-Jul-31 09:33N 43°33' E 010°18'0 0.0
2014-Jul-31 08:33N 43°33' E 010°18'0 0.0
2014-Jul-31 07:31N 43°33' E 010°18'0 0.0
2014-Jul-31 06:29N 43°33' E 010°18'0 0.0
2014-Jul-31 05:32N 43°33' E 010°18'0 0.2
2014-Jul-31 04:33N 43°33' E 010°18'9 8.8
2014-Jul-31 03:33N 43°26' E 010°12'1414.0
2014-Jul-31 02:33N 43°12' E 010°06'1414.5
2014-Jul-31 01:33N 42°58' E 010°00'1514.6
2014-Jul-31 00:31N 42°44' E 009°55'1616.3
2014-Jul-30 23:33N 42°28' E 009°55'1713.3
2014-Jul-30 22:14N 42°14' E 010°09'1115.0
2014-Jul-30 21:30N 42°10' E 010°23'29 8.3
2014-Jul-30 18:00N 42°00' E 011°00'121 5.8 070 / 151017.010.8 1.526.023.224.0
2014-Jul-29 21:03N 40°42' E 013°04'917.2
2014-Jul-29 20:33N 40°41' E 013°15'1817.6
2014-Jul-29 19:34N 40°39' E 013°38'1817.5
2014-Jul-29 18:34N 40°38' E 014°01'610.0
2014-Jul-29 18:00N 40°42' E 014°06'1023.6 040 / 281017.010.8 1.024.019.625.0
2014-Jul-29 17:33N 40°48' E 014°17'2 2.2
2014-Jul-29 16:33N 40°50' E 014°16'0 0.0
2014-Jul-29 15:33N 40°50' E 014°16'0 0.0
2014-Jul-29 14:31N 40°50' E 014°16'0 0.0
2014-Jul-29 13:14N 40°50' E 014°16'1 0.1
2014-Jul-29 04:32N 40°50' E 014°17'9 9.0
2014-Jul-29 03:33N 40°43' E 014°10'1615.5
2014-Jul-29 02:33N 40°38' E 013°50'1716.6
2014-Jul-29 01:33N 40°40' E 013°29'2616.9
2014-Jul-29 00:00N 40°42' E 012°54'12915.3 1012.010.8 1.024.0 23.0
2014-Jul-28 15:33N 41°14' E 010°08'1714.5
2014-Jul-28 14:23N 41°18' E 009°46'6615.8
2014-Jul-28 10:13N 41°17' E 008°19'1415.1
2014-Jul-28 09:18N 41°17' E 008°00'1216.0
2014-Jul-28 08:33N 41°17' E 007°44'1816.0
2014-Jul-28 07:27N 41°17' E 007°21'1617.9
2014-Jul-28 06:33N 41°17' E 006°59'3215.4
2014-Jul-28 04:29N 41°17' E 006°17'2016.6
2014-Jul-28 03:18N 41°16' E 005°51'1416.5
2014-Jul-28 02:29N 41°16' E 005°33'1716.6
2014-Jul-28 01:27N 41°16' E 005°10'1616.2
2014-Jul-28 00:27N 41°16' E 004°48'1022.7
2014-Jul-28 00:00N 41°12' E 004°36'714.3 1015.010.8 0.525.0 23.0
2014-Jul-27 23:31N 41°16' E 004°29'1616.5
2014-Jul-27 22:33N 41°16' E 004°08'1616.0
2014-Jul-27 21:33N 41°16' E 003°46'1615.6
2014-Jul-27 20:33N 41°16' E 003°26'1616.2
2014-Jul-27 19:33N 41°16' E 003°04'1615.9
2014-Jul-27 18:33N 41°16' E 002°43'1515.0
2014-Jul-27 17:33N 41°14' E 002°23'12 1.0
2014-Jul-27 05:32N 41°22' E 002°11'0 0.0
2014-Jul-27 02:25N 41°22' E 002°11'4 4.2
2014-Jul-27 01:33N 41°18' E 002°11'1514.6
2014-Jul-27 00:33N 41°04' E 002°12'1918.7
2014-Jul-26 23:33N 40°45' E 002°11'1918.8
2014-Jul-26 22:33N 40°26' E 002°12'1919.0
2014-Jul-26 21:33N 40°07' E 002°12'1919.1
2014-Jul-26 20:33N 39°48' E 002°12'1918.7
2014-Jul-26 19:34N 39°30' E 002°19'1513.5
2014-Jul-26 18:27N 39°31' E 002°38'2 2.4
2014-Jul-26 17:33N 39°33' E 002°38'0 0.0
2014-Jul-26 16:22N 39°33' E 002°38'0 0.0
2014-Jul-26 15:33N 39°33' E 002°38'0 0.0
2014-Jul-26 14:33N 39°33' E 002°38'0 0.1
2014-Jul-26 13:31N 39°33' E 002°38'0 0.1
2014-Jul-26 12:31N 39°33' E 002°38'0 0.1
2014-Jul-26 11:33N 39°33' E 002°38'0 0.1
2014-Jul-26 10:33N 39°33' E 002°38'6 5.8
2014-Jul-26 09:33N 39°28' E 002°36'1515.3
2014-Jul-26 08:33N 39°31' E 002°16'1818.1
2014-Jul-26 07:33N 39°48' E 002°26'2020.4
2014-Jul-26 06:33N 40°03' E 002°43'2120.6
2014-Jul-26 05:33N 40°18' E 003°02'2120.9
2014-Jul-26 04:33N 40°33' E 003°21'2121.0
2014-Jul-26 03:33N 40°47' E 003°41'2120.6
2014-Jul-26 02:33N 41°02' E 004°00'2120.6
2014-Jul-26 01:32N 41°17' E 004°19'2320.6
2014-Jul-26 00:26N 41°33' E 004°42'1820.8
2014-Jul-25 23:33N 41°45' E 004°59'2120.9
2014-Jul-25 22:33N 42°00' E 005°19'2121.1
2014-Jul-25 21:32N 42°15' E 005°40'2121.4
2014-Jul-25 20:34N 42°30' E 005°60'2221.6
2014-Jul-25 19:34N 42°45' E 006°21'2222.4
2014-Jul-25 18:33N 43°01' E 006°42'2222.1
2014-Jul-25 17:34N 43°20' E 006°57'1211.4
2014-Jul-25 16:30N 43°32' E 007°01'0 0.1
2014-Jul-25 15:30N 43°32' E 007°01'0 0.0
2014-Jul-25 14:31N 43°32' E 007°01'0 0.0
2014-Jul-25 13:32N 43°32' E 007°01'0 0.0
2014-Jul-25 12:32N 43°32' E 007°01'0 0.0
2014-Jul-25 11:33N 43°32' E 007°01'0 0.1
2014-Jul-25 10:28N 43°32' E 007°01'0 0.1
2014-Jul-25 09:28N 43°32' E 007°01'0 0.0
2014-Jul-25 08:32N 43°32' E 007°01'0 0.0
2014-Jul-25 07:30N 43°32' E 007°01'0 0.0
2014-Jul-25 06:30N 43°32' E 007°01'0 0.0
2014-Jul-25 05:33N 43°32' E 007°01'4 4.0
2014-Jul-25 04:33N 43°28' E 007°03'1312.8
2014-Jul-25 03:33N 43°28' E 007°20'1313.3
2014-Jul-25 02:33N 43°29' E 007°39'2713.5
2014-Jul-25 00:31N 43°30' E 008°17'510.1
2014-Jul-25 00:00N 43°30' E 008°24'817.8 1012.010.8 0.522.0 22.0
2014-Jul-24 23:32N 43°30' E 008°35'1313.5
2014-Jul-24 22:33N 43°31' E 008°53'1313.0
2014-Jul-24 21:33N 43°31' E 009°11'1312.9
2014-Jul-24 20:33N 43°31' E 009°29'1312.6
2014-Jul-24 19:33N 43°32' E 009°46'1212.3
2014-Jul-24 18:33N 43°30' E 010°03'1010.4
2014-Jul-24 17:34N 43°32' E 010°17'1 1.0
2014-Jul-24 16:33N 43°33' E 010°18'0 0.0
2014-Jul-24 15:33N 43°33' E 010°18'0 0.0
2014-Jul-24 14:31N 43°33' E 010°18'0 0.0
2014-Jul-24 13:32N 43°33' E 010°18'0 0.0
2014-Jul-24 12:33N 43°33' E 010°18'0 0.0
2014-Jul-24 11:33N 43°33' E 010°18'0 0.0
2014-Jul-24 10:31N 43°33' E 010°18'0 0.0
2014-Jul-24 09:32N 43°33' E 010°18'0 0.0
2014-Jul-24 08:32N 43°33' E 010°18'0 0.0
2014-Jul-24 07:33N 43°33' E 010°18'0 0.0
2014-Jul-24 06:31N 43°33' E 010°18'0 0.0
2014-Jul-24 05:31N 43°33' E 010°18'0 0.4
2014-Jul-24 04:34N 43°33' E 010°18'10 9.6
2014-Jul-24 03:33N 43°25' E 010°11'1515.5
2014-Jul-24 02:33N 43°10' E 010°05'1515.5
2014-Jul-24 01:33N 42°55' E 009°59'1515.3
2014-Jul-24 00:33N 42°40' E 009°54'1515.1
2014-Jul-23 23:33N 42°25' E 009°53'1312.5
2014-Jul-23 22:33N 42°15' E 010°04'2115.3
2014-Jul-23 21:10N 42°08' E 010°31'1315.4
2014-Jul-23 20:18N 42°04' E 010°48'1215.5
2014-Jul-23 19:33N 42°01' E 011°03'60 3.1
2014-Jul-23 00:00N 41°24' E 012°06'6317.5 1009.010.8 1.022.0 22.0
2014-Jul-22 20:23N 40°42' E 013°08'1518.4
2014-Jul-22 19:33N 40°40' E 013°28'1818.4
2014-Jul-22 18:33N 40°38' E 013°52'1717.4
2014-Jul-22 17:33N 40°45' E 014°13'  
Track history (hours):
 
Tides and Currents Weather Stations Pressure Air Temp Water Temp Dewpoint Dewpoint Depression Visibility Wind Speed Wind Dir Waves Ship Positions

Norwegian Epic

Last reported at 2014-Aug-01 13:29 UTC. Time now 2014-Aug-01 13:59 UTC.
Position N 43°32' E 007°01'.

Length 329 m; draft 9 m.

Type: Passenger vessel. MMSI: 311018500.

Date/timePositionNaut miles runAvg speedWind from/ knotsBaromVisibWave heightAir tempDewpointWater temp
2014-Aug-01 13:29N 43°32' E 007°01'0 0.1
2014-Aug-01 12:32N 43°32' E 007°01'0 0.0
2014-Aug-01 11:13N 43°32' E 007°01'0 0.0
2014-Aug-01 10:19N 43°32' E 007°01'0 0.0
2014-Aug-01 09:26N 43°32' E 007°01'0 0.0
2014-Aug-01 08:32N 43°32' E 007°01'0 0.0
2014-Aug-01 07:33N 43°32' E 007°01'0 0.0
2014-Aug-01 06:22N 43°32' E 007°01'0 0.0
2014-Aug-01 05:31N 43°32' E 007°01'5 5.1
2014-Aug-01 04:33N 43°28' E 007°05'1111.2
2014-Aug-01 03:33N 43°28' E 007°20'1413.8
2014-Aug-01 02:33N 43°29' E 007°39'1613.9
2014-Aug-01 01:23N 43°30' E 008°01'1113.8
2014-Aug-01 00:34N 43°30' E 008°17'813.4
2014-Aug-01 00:00N 43°24' E 008°24'1023.5 1011.010.8 1.022.0 23.0
2014-Jul-31 23:34N 43°30' E 008°35'1312.5
2014-Jul-31 22:33N 43°31' E 008°53'1212.5
2014-Jul-31 21:33N 43°31' E 009°10'1212.1
2014-Jul-31 20:33N 43°31' E 009°26'1212.3
2014-Jul-31 19:33N 43°32' E 009°43'1212.0
2014-Jul-31 18:34N 43°31' E 009°60'1110.9
2014-Jul-31 17:33N 43°32' E 010°15'3 2.7
2014-Jul-31 16:31N 43°33' E 010°18'0 0.0
2014-Jul-31 15:32N 43°33' E 010°18'0 0.0
2014-Jul-31 14:32N 43°33' E 010°18'0 0.0
2014-Jul-31 13:33N 43°33' E 010°18'0 0.0
2014-Jul-31 12:34N 43°33' E 010°18'0 0.0
2014-Jul-31 11:31N 43°33' E 010°18'0 0.0
2014-Jul-31 10:32N 43°33' E 010°18'0 0.0
2014-Jul-31 09:33N 43°33' E 010°18'0 0.0
2014-Jul-31 08:33N 43°33' E 010°18'0 0.0
2014-Jul-31 07:31N 43°33' E 010°18'0 0.0
2014-Jul-31 06:29N 43°33' E 010°18'0 0.0
2014-Jul-31 05:32N 43°33' E 010°18'0 0.2
2014-Jul-31 04:33N 43°33' E 010°18'9 8.8
2014-Jul-31 03:33N 43°26' E 010°12'1414.0
2014-Jul-31 02:33N 43°12' E 010°06'1414.5
2014-Jul-31 01:33N 42°58' E 010°00'1514.6
2014-Jul-31 00:31N 42°44' E 009°55'1616.3
2014-Jul-30 23:33N 42°28' E 009°55'1713.3
2014-Jul-30 22:14N 42°14' E 010°09'1115.0
2014-Jul-30 21:30N 42°10' E 010°23'29 8.3
2014-Jul-30 18:00N 42°00' E 011°00'121 5.8 070 / 151017.010.8 1.526.023.224.0
2014-Jul-29 21:03N 40°42' E 013°04'917.2
2014-Jul-29 20:33N 40°41' E 013°15'1817.6
2014-Jul-29 19:34N 40°39' E 013°38'1817.5
2014-Jul-29 18:34N 40°38' E 014°01'610.0
2014-Jul-29 18:00N 40°42' E 014°06'1023.6 040 / 281017.010.8 1.024.019.625.0
2014-Jul-29 17:33N 40°48' E 014°17'2 2.2
2014-Jul-29 16:33N 40°50' E 014°16'0 0.0
2014-Jul-29 15:33N 40°50' E 014°16'0 0.0
2014-Jul-29 14:31N 40°50' E 014°16'0 0.0
2014-Jul-29 13:14N 40°50' E 014°16'1 0.1
2014-Jul-29 04:32N 40°50' E 014°17'9 9.0
2014-Jul-29 03:33N 40°43' E 014°10'1615.5
2014-Jul-29 02:33N 40°38' E 013°50'1716.6
2014-Jul-29 01:33N 40°40' E 013°29'2616.9
2014-Jul-29 00:00N 40°42' E 012°54'12915.3 1012.010.8 1.024.0 23.0
2014-Jul-28 15:33N 41°14' E 010°08'1714.5
2014-Jul-28 14:23N 41°18' E 009°46'6615.8
2014-Jul-28 10:13N 41°17' E 008°19'1415.1
2014-Jul-28 09:18N 41°17' E 008°00'1216.0
2014-Jul-28 08:33N 41°17' E 007°44'1816.0
2014-Jul-28 07:27N 41°17' E 007°21'1617.9
2014-Jul-28 06:33N 41°17' E 006°59'3215.4
2014-Jul-28 04:29N 41°17' E 006°17'2016.6
2014-Jul-28 03:18N 41°16' E 005°51'1416.5
2014-Jul-28 02:29N 41°16' E 005°33'1716.6
2014-Jul-28 01:27N 41°16' E 005°10'1616.2
2014-Jul-28 00:27N 41°16' E 004°48'1022.7
2014-Jul-28 00:00N 41°12' E 004°36'714.3 1015.010.8 0.525.0 23.0
2014-Jul-27 23:31N 41°16' E 004°29'1616.5
2014-Jul-27 22:33N 41°16' E 004°08'1616.0
2014-Jul-27 21:33N 41°16' E 003°46'1615.6
2014-Jul-27 20:33N 41°16' E 003°26'1616.2
2014-Jul-27 19:33N 41°16' E 003°04'1615.9
2014-Jul-27 18:33N 41°16' E 002°43'1515.0
2014-Jul-27 17:33N 41°14' E 002°23'12 1.0
2014-Jul-27 05:32N 41°22' E 002°11'0 0.0
2014-Jul-27 02:25N 41°22' E 002°11'4 4.2
2014-Jul-27 01:33N 41°18' E 002°11'1514.6
2014-Jul-27 00:33N 41°04' E 002°12'1918.7
2014-Jul-26 23:33N 40°45' E 002°11'1918.8
2014-Jul-26 22:33N 40°26' E 002°12'1919.0
2014-Jul-26 21:33N 40°07' E 002°12'1919.1
2014-Jul-26 20:33N 39°48' E 002°12'1918.7
2014-Jul-26 19:34N 39°30' E 002°19'1513.5
2014-Jul-26 18:27N 39°31' E 002°38'2 2.4
2014-Jul-26 17:33N 39°33' E 002°38'0 0.0
2014-Jul-26 16:22N 39°33' E 002°38'0 0.0
2014-Jul-26 15:33N 39°33' E 002°38'0 0.0
2014-Jul-26 14:33N 39°33' E 002°38'0 0.1
2014-Jul-26 13:31N 39°33' E 002°38'0 0.1
2014-Jul-26 12:31N 39°33' E 002°38'0 0.1
2014-Jul-26 11:33N 39°33' E 002°38'0 0.1
2014-Jul-26 10:33N 39°33' E 002°38'6 5.8
2014-Jul-26 09:33N 39°28' E 002°36'1515.3
2014-Jul-26 08:33N 39°31' E 002°16'1818.1
2014-Jul-26 07:33N 39°48' E 002°26'2020.4
2014-Jul-26 06:33N 40°03' E 002°43'2120.6
2014-Jul-26 05:33N 40°18' E 003°02'2120.9
2014-Jul-26 04:33N 40°33' E 003°21'2121.0
2014-Jul-26 03:33N 40°47' E 003°41'2120.6
2014-Jul-26 02:33N 41°02' E 004°00'2120.6
2014-Jul-26 01:32N 41°17' E 004°19'2320.6
2014-Jul-26 00:26N 41°33' E 004°42'1820.8
2014-Jul-25 23:33N 41°45' E 004°59'2120.9
2014-Jul-25 22:33N 42°00' E 005°19'2121.1
2014-Jul-25 21:32N 42°15' E 005°40'2121.4
2014-Jul-25 20:34N 42°30' E 005°60'2221.6
2014-Jul-25 19:34N 42°45' E 006°21'2222.4
2014-Jul-25 18:33N 43°01' E 006°42'2222.1
2014-Jul-25 17:34N 43°20' E 006°57'1211.4
2014-Jul-25 16:30N 43°32' E 007°01'0 0.1
2014-Jul-25 15:30N 43°32' E 007°01'0 0.0
2014-Jul-25 14:31N 43°32' E 007°01'0 0.0
2014-Jul-25 13:32N 43°32' E 007°01'0 0.0
2014-Jul-25 12:32N 43°32' E 007°01'0 0.0
2014-Jul-25 11:33N 43°32' E 007°01'0 0.1
2014-Jul-25 10:28N 43°32' E 007°01'0 0.1
2014-Jul-25 09:28N 43°32' E 007°01'0 0.0
2014-Jul-25 08:32N 43°32' E 007°01'0 0.0
2014-Jul-25 07:30N 43°32' E 007°01'0 0.0
2014-Jul-25 06:30N 43°32' E 007°01'0 0.0
2014-Jul-25 05:33N 43°32' E 007°01'4 4.0
2014-Jul-25 04:33N 43°28' E 007°03'1312.8
2014-Jul-25 03:33N 43°28' E 007°20'1313.3
2014-Jul-25 02:33N 43°29' E 007°39'2713.5
2014-Jul-25 00:31N 43°30' E 008°17'510.1
2014-Jul-25 00:00N 43°30' E 008°24'817.8 1012.010.8 0.522.0 22.0
2014-Jul-24 23:32N 43°30' E 008°35'1313.5
2014-Jul-24 22:33N 43°31' E 008°53'1313.0
2014-Jul-24 21:33N 43°31' E 009°11'1312.9
2014-Jul-24 20:33N 43°31' E 009°29'1312.6
2014-Jul-24 19:33N 43°32' E 009°46'1212.3
2014-Jul-24 18:33N 43°30' E 010°03'1010.4
2014-Jul-24 17:34N 43°32' E 010°17'1 1.0
2014-Jul-24 16:33N 43°33' E 010°18'0 0.0
2014-Jul-24 15:33N 43°33' E 010°18'0 0.0
2014-Jul-24 14:31N 43°33' E 010°18'0 0.0
2014-Jul-24 13:32N 43°33' E 010°18'0 0.0
2014-Jul-24 12:33N 43°33' E 010°18'0 0.0
2014-Jul-24 11:33N 43°33' E 010°18'0 0.0
2014-Jul-24 10:31N 43°33' E 010°18'0 0.0
2014-Jul-24 09:32N 43°33' E 010°18'0 0.0
2014-Jul-24 08:32N 43°33' E 010°18'0 0.0
2014-Jul-24 07:33N 43°33' E 010°18'0 0.0
2014-Jul-24 06:31N 43°33' E 010°18'0 0.0
2014-Jul-24 05:31N 43°33' E 010°18'0 0.4
2014-Jul-24 04:34N 43°33' E 010°18'10 9.6
2014-Jul-24 03:33N 43°25' E 010°11'1515.5
2014-Jul-24 02:33N 43°10' E 010°05'1515.5
2014-Jul-24 01:33N 42°55' E 009°59'1515.3
2014-Jul-24 00:33N 42°40' E 009°54'1515.1
2014-Jul-23 23:33N 42°25' E 009°53'1312.5
2014-Jul-23 22:33N 42°15' E 010°04'2115.3
2014-Jul-23 21:10N 42°08' E 010°31'1315.4
2014-Jul-23 20:18N 42°04' E 010°48'1215.5
2014-Jul-23 19:33N 42°01' E 011°03'60 3.1
2014-Jul-23 00:00N 41°24' E 012°06'6317.5 1009.010.8 1.022.0 22.0
2014-Jul-22 20:23N 40°42' E 013°08'1518.4
2014-Jul-22 19:33N 40°40' E 013°28'1818.4
2014-Jul-22 18:33N 40°38' E 013°52'1717.4
2014-Jul-22 17:33N 40°45' E 014°13'  

Dump ship's entire track history